sensor_id;sensor_type;location;lat;lon;timestamp;temperature;humidity
18229;DHT22;9239;50.932;3.142;2024-03-08T00:01:57;5.20;99.90
18229;DHT22;9239;50.932;3.142;2024-03-08T00:04:25;5.20;99.90
18229;DHT22;9239;50.932;3.142;2024-03-08T00:06:52;5.20;99.90
18229;DHT22;9239;50.932;3.142;2024-03-08T00:09:19;5.20;99.90
18229;DHT22;9239;50.932;3.142;2024-03-08T00:11:47;5.20;99.90
18229;DHT22;9239;50.932;3.142;2024-03-08T00:14:15;5.20;99.90
18229;DHT22;9239;50.932;3.142;2024-03-08T00:16:42;5.20;99.90
18229;DHT22;9239;50.932;3.142;2024-03-08T00:19:09;5.20;99.90
18229;DHT22;9239;50.932;3.142;2024-03-08T00:21:38;5.20;99.90
18229;DHT22;9239;50.932;3.142;2024-03-08T00:24:05;5.20;99.90
18229;DHT22;9239;50.932;3.142;2024-03-08T00:26:32;5.20;99.90
18229;DHT22;9239;50.932;3.142;2024-03-08T00:28:59;5.20;99.90
18229;DHT22;9239;50.932;3.142;2024-03-08T00:31:26;5.20;99.90
18229;DHT22;9239;50.932;3.142;2024-03-08T00:33:53;5.20;99.90
18229;DHT22;9239;50.932;3.142;2024-03-08T00:36:20;5.20;99.90
18229;DHT22;9239;50.932;3.142;2024-03-08T00:38:49;5.20;99.90
18229;DHT22;9239;50.932;3.142;2024-03-08T00:41:16;5.20;99.90
18229;DHT22;9239;50.932;3.142;2024-03-08T00:43:42;5.20;99.90
18229;DHT22;9239;50.932;3.142;2024-03-08T00:46:09;5.20;99.90
18229;DHT22;9239;50.932;3.142;2024-03-08T00:48:36;5.20;99.90
18229;DHT22;9239;50.932;3.142;2024-03-08T00:51:04;5.10;99.90
18229;DHT22;9239;50.932;3.142;2024-03-08T00:53:31;5.10;99.90
18229;DHT22;9239;50.932;3.142;2024-03-08T00:56:00;5.10;99.90
18229;DHT22;9239;50.932;3.142;2024-03-08T00:58:27;5.10;99.90
18229;DHT22;9239;50.932;3.142;2024-03-08T01:00:54;5.10;99.90
18229;DHT22;9239;50.932;3.142;2024-03-08T01:03:22;5.10;99.90
18229;DHT22;9239;50.932;3.142;2024-03-08T01:05:49;5.10;99.90
18229;DHT22;9239;50.932;3.142;2024-03-08T01:08:17;5.00;99.90
18229;DHT22;9239;50.932;3.142;2024-03-08T01:10:44;5.00;99.90
18229;DHT22;9239;50.932;3.142;2024-03-08T01:13:12;5.00;99.90
18229;DHT22;9239;50.932;3.142;2024-03-08T01:15:39;4.90;99.90
18229;DHT22;9239;50.932;3.142;2024-03-08T01:18:07;4.90;99.90
18229;DHT22;9239;50.932;3.142;2024-03-08T01:20:34;4.90;99.90
18229;DHT22;9239;50.932;3.142;2024-03-08T01:23:01;4.80;99.90
18229;DHT22;9239;50.932;3.142;2024-03-08T01:25:29;4.80;99.90
18229;DHT22;9239;50.932;3.142;2024-03-08T01:27:57;4.80;99.90
18229;DHT22;9239;50.932;3.142;2024-03-08T01:30:25;4.80;99.90
18229;DHT22;9239;50.932;3.142;2024-03-08T01:32:52;4.70;99.90
18229;DHT22;9239;50.932;3.142;2024-03-08T01:35:19;4.70;99.90
18229;DHT22;9239;50.932;3.142;2024-03-08T01:37:47;4.60;99.90
18229;DHT22;9239;50.932;3.142;2024-03-08T01:40:15;4.60;99.90
18229;DHT22;9239;50.932;3.142;2024-03-08T01:42:42;4.60;99.90
18229;DHT22;9239;50.932;3.142;2024-03-08T01:45:10;4.60;99.90
18229;DHT22;9239;50.932;3.142;2024-03-08T01:47:40;4.60;99.90
18229;DHT22;9239;50.932;3.142;2024-03-08T01:50:07;4.60;99.90
18229;DHT22;9239;50.932;3.142;2024-03-08T01:52:35;4.60;99.90
18229;DHT22;9239;50.932;3.142;2024-03-08T01:55:05;4.60;99.90
18229;DHT22;9239;50.932;3.142;2024-03-08T01:57:33;4.60;99.90
18229;DHT22;9239;50.932;3.142;2024-03-08T02:00:00;4.60;99.90
18229;DHT22;9239;50.932;3.142;2024-03-08T02:02:32;4.60;99.90
18229;DHT22;9239;50.932;3.142;2024-03-08T02:05:02;4.60;99.90
18229;DHT22;9239;50.932;3.142;2024-03-08T02:07:29;4.50;99.90
18229;DHT22;9239;50.932;3.142;2024-03-08T02:09:56;4.50;99.90
18229;DHT22;9239;50.932;3.142;2024-03-08T02:12:23;4.50;99.90
18229;DHT22;9239;50.932;3.142;2024-03-08T02:14:50;4.50;99.90
18229;DHT22;9239;50.932;3.142;2024-03-08T02:17:17;4.50;99.90
18229;DHT22;9239;50.932;3.142;2024-03-08T02:19:44;4.50;99.90
18229;DHT22;9239;50.932;3.142;2024-03-08T02:22:13;4.50;99.90
18229;DHT22;9239;50.932;3.142;2024-03-08T02:24:41;4.50;99.90
18229;DHT22;9239;50.932;3.142;2024-03-08T02:27:08;4.50;99.90
18229;DHT22;9239;50.932;3.142;2024-03-08T02:29:37;4.50;99.90
18229;DHT22;9239;50.932;3.142;2024-03-08T02:32:06;4.50;99.90
18229;DHT22;9239;50.932;3.142;2024-03-08T02:34:33;4.50;99.90
18229;DHT22;9239;50.932;3.142;2024-03-08T02:37:00;4.40;99.90
18229;DHT22;9239;50.932;3.142;2024-03-08T02:39:29;4.40;99.90
18229;DHT22;9239;50.932;3.142;2024-03-08T02:41:57;4.30;99.90
18229;DHT22;9239;50.932;3.142;2024-03-08T02:44:24;4.30;99.90
18229;DHT22;9239;50.932;3.142;2024-03-08T02:46:51;4.30;99.90
18229;DHT22;9239;50.932;3.142;2024-03-08T02:49:20;4.30;99.90
18229;DHT22;9239;50.932;3.142;2024-03-08T02:51:47;4.30;99.90
18229;DHT22;9239;50.932;3.142;2024-03-08T02:54:14;4.30;99.90
18229;DHT22;9239;50.932;3.142;2024-03-08T02:56:44;4.30;99.90
18229;DHT22;9239;50.932;3.142;2024-03-08T02:59:12;4.30;99.90
18229;DHT22;9239;50.932;3.142;2024-03-08T03:01:39;4.30;99.90
18229;DHT22;9239;50.932;3.142;2024-03-08T03:04:06;4.40;99.90
18229;DHT22;9239;50.932;3.142;2024-03-08T03:06:33;4.30;99.90
18229;DHT22;9239;50.932;3.142;2024-03-08T03:09:01;4.30;99.90
18229;DHT22;9239;50.932;3.142;2024-03-08T03:11:29;4.30;99.90
18229;DHT22;9239;50.932;3.142;2024-03-08T03:13:57;4.40;99.90
18229;DHT22;9239;50.932;3.142;2024-03-08T03:16:24;4.30;99.90
18229;DHT22;9239;50.932;3.142;2024-03-08T03:18:51;4.30;99.90
18229;DHT22;9239;50.932;3.142;2024-03-08T03:21:18;4.30;99.90
18229;DHT22;9239;50.932;3.142;2024-03-08T03:23:45;4.20;99.90
18229;DHT22;9239;50.932;3.142;2024-03-08T03:26:12;4.20;99.90
18229;DHT22;9239;50.932;3.142;2024-03-08T03:28:38;4.20;99.90
18229;DHT22;9239;50.932;3.142;2024-03-08T03:31:07;4.20;99.90
18229;DHT22;9239;50.932;3.142;2024-03-08T03:33:39;4.20;99.90
18229;DHT22;9239;50.932;3.142;2024-03-08T03:36:06;4.20;99.90
18229;DHT22;9239;50.932;3.142;2024-03-08T03:38:35;4.20;99.90
18229;DHT22;9239;50.932;3.142;2024-03-08T03:41:03;4.20;99.90
18229;DHT22;9239;50.932;3.142;2024-03-08T03:43:35;4.20;99.90
18229;DHT22;9239;50.932;3.142;2024-03-08T03:46:07;4.20;99.90
18229;DHT22;9239;50.932;3.142;2024-03-08T03:48:36;4.10;99.90
18229;DHT22;9239;50.932;3.142;2024-03-08T03:51:03;4.10;99.90
18229;DHT22;9239;50.932;3.142;2024-03-08T03:53:30;4.10;99.90
18229;DHT22;9239;50.932;3.142;2024-03-08T03:55:57;4.10;99.90
18229;DHT22;9239;50.932;3.142;2024-03-08T03:58:25;4.00;99.90
18229;DHT22;9239;50.932;3.142;2024-03-08T04:00:52;4.10;99.90
18229;DHT22;9239;50.932;3.142;2024-03-08T04:03:20;4.20;99.90
18229;DHT22;9239;50.932;3.142;2024-03-08T04:05:47;4.10;99.90
18229;DHT22;9239;50.932;3.142;2024-03-08T04:08:14;4.10;99.90
18229;DHT22;9239;50.932;3.142;2024-03-08T04:10:42;4.10;99.90
18229;DHT22;9239;50.932;3.142;2024-03-08T04:13:09;4.10;99.90
18229;DHT22;9239;50.932;3.142;2024-03-08T04:15:36;4.00;99.90
18229;DHT22;9239;50.932;3.142;2024-03-08T04:18:04;3.90;99.90
18229;DHT22;9239;50.932;3.142;2024-03-08T04:20:32;3.90;99.90
18229;DHT22;9239;50.932;3.142;2024-03-08T04:23:00;3.90;99.90
18229;DHT22;9239;50.932;3.142;2024-03-08T04:25:27;3.90;99.90
18229;DHT22;9239;50.932;3.142;2024-03-08T04:27:54;3.90;99.90
18229;DHT22;9239;50.932;3.142;2024-03-08T04:30:20;3.90;99.90
18229;DHT22;9239;50.932;3.142;2024-03-08T04:32:48;3.80;99.90
18229;DHT22;9239;50.932;3.142;2024-03-08T04:35:15;3.80;99.90
18229;DHT22;9239;50.932;3.142;2024-03-08T04:37:43;3.70;99.90
18229;DHT22;9239;50.932;3.142;2024-03-08T04:40:11;3.70;99.90
18229;DHT22;9239;50.932;3.142;2024-03-08T04:42:39;3.70;99.90
18229;DHT22;9239;50.932;3.142;2024-03-08T04:45:08;3.70;99.90
18229;DHT22;9239;50.932;3.142;2024-03-08T04:47:36;3.70;99.90
18229;DHT22;9239;50.932;3.142;2024-03-08T04:50:04;3.70;99.90
18229;DHT22;9239;50.932;3.142;2024-03-08T04:52:31;3.70;99.90
18229;DHT22;9239;50.932;3.142;2024-03-08T04:54:59;3.70;99.90
18229;DHT22;9239;50.932;3.142;2024-03-08T04:57:27;3.70;99.90
18229;DHT22;9239;50.932;3.142;2024-03-08T04:59:54;3.60;99.90
18229;DHT22;9239;50.932;3.142;2024-03-08T05:02:21;3.60;99.90
18229;DHT22;9239;50.932;3.142;2024-03-08T05:04:49;3.70;99.90
18229;DHT22;9239;50.932;3.142;2024-03-08T05:07:16;3.70;99.90
18229;DHT22;9239;50.932;3.142;2024-03-08T05:09:43;3.70;99.90
18229;DHT22;9239;50.932;3.142;2024-03-08T05:12:18;3.70;99.90
18229;DHT22;9239;50.932;3.142;2024-03-08T05:14:45;3.60;99.90
18229;DHT22;9239;50.932;3.142;2024-03-08T05:17:15;3.60;99.90
18229;DHT22;9239;50.932;3.142;2024-03-08T05:19:42;3.60;99.90
18229;DHT22;9239;50.932;3.142;2024-03-08T05:22:09;3.60;99.90
18229;DHT22;9239;50.932;3.142;2024-03-08T05:24:36;3.60;99.90
18229;DHT22;9239;50.932;3.142;2024-03-08T05:27:03;3.50;99.90
18229;DHT22;9239;50.932;3.142;2024-03-08T05:29:31;3.50;99.90
18229;DHT22;9239;50.932;3.142;2024-03-08T05:31:59;3.50;99.90
18229;DHT22;9239;50.932;3.142;2024-03-08T05:34:25;3.50;99.90
18229;DHT22;9239;50.932;3.142;2024-03-08T05:36:54;3.50;99.90
18229;DHT22;9239;50.932;3.142;2024-03-08T05:39:21;3.50;99.90
18229;DHT22;9239;50.932;3.142;2024-03-08T05:41:49;3.40;99.90
18229;DHT22;9239;50.932;3.142;2024-03-08T05:44:16;3.40;99.90
18229;DHT22;9239;50.932;3.142;2024-03-08T05:46:45;3.40;99.90
18229;DHT22;9239;50.932;3.142;2024-03-08T05:49:12;3.40;99.90
18229;DHT22;9239;50.932;3.142;2024-03-08T05:51:40;3.50;99.90
18229;DHT22;9239;50.932;3.142;2024-03-08T05:54:08;3.40;99.90
18229;DHT22;9239;50.932;3.142;2024-03-08T05:56:36;3.40;99.90
18229;DHT22;9239;50.932;3.142;2024-03-08T05:59:03;3.40;99.90
18229;DHT22;9239;50.932;3.142;2024-03-08T06:01:30;3.40;99.90
18229;DHT22;9239;50.932;3.142;2024-03-08T06:03:59;3.30;99.90
18229;DHT22;9239;50.932;3.142;2024-03-08T06:06:26;3.40;99.90
18229;DHT22;9239;50.932;3.142;2024-03-08T06:08:53;3.40;99.90
18229;DHT22;9239;50.932;3.142;2024-03-08T06:11:22;3.30;99.90
18229;DHT22;9239;50.932;3.142;2024-03-08T06:13:49;3.30;99.90
18229;DHT22;9239;50.932;3.142;2024-03-08T06:16:16;3.40;99.90
18229;DHT22;9239;50.932;3.142;2024-03-08T06:18:43;3.40;99.90
18229;DHT22;9239;50.932;3.142;2024-03-08T06:21:13;3.40;99.90
18229;DHT22;9239;50.932;3.142;2024-03-08T06:23:41;3.40;99.90
18229;DHT22;9239;50.932;3.142;2024-03-08T06:26:08;3.40;99.90
18229;DHT22;9239;50.932;3.142;2024-03-08T06:28:35;3.40;99.90
18229;DHT22;9239;50.932;3.142;2024-03-08T06:31:03;3.40;99.90
18229;DHT22;9239;50.932;3.142;2024-03-08T06:33:30;3.40;99.90
18229;DHT22;9239;50.932;3.142;2024-03-08T06:35:58;3.40;99.90
18229;DHT22;9239;50.932;3.142;2024-03-08T06:38:26;3.40;99.90
18229;DHT22;9239;50.932;3.142;2024-03-08T06:40:53;3.40;99.90
18229;DHT22;9239;50.932;3.142;2024-03-08T06:43:20;3.40;99.90
18229;DHT22;9239;50.932;3.142;2024-03-08T06:45:47;3.40;99.90
18229;DHT22;9239;50.932;3.142;2024-03-08T06:48:15;3.40;99.90
18229;DHT22;9239;50.932;3.142;2024-03-08T06:50:43;3.40;99.90
18229;DHT22;9239;50.932;3.142;2024-03-08T06:53:10;3.40;99.90
18229;DHT22;9239;50.932;3.142;2024-03-08T06:55:39;3.50;99.90
18229;DHT22;9239;50.932;3.142;2024-03-08T06:58:06;3.50;99.90
18229;DHT22;9239;50.932;3.142;2024-03-08T07:00:33;3.50;99.90
18229;DHT22;9239;50.932;3.142;2024-03-08T07:03:01;3.60;99.90
18229;DHT22;9239;50.932;3.142;2024-03-08T07:05:28;3.60;99.90
18229;DHT22;9239;50.932;3.142;2024-03-08T07:07:56;3.60;99.90
18229;DHT22;9239;50.932;3.142;2024-03-08T07:10:23;3.70;99.90
18229;DHT22;9239;50.932;3.142;2024-03-08T07:12:52;3.90;99.90
18229;DHT22;9239;50.932;3.142;2024-03-08T07:15:20;4.00;99.90
18229;DHT22;9239;50.932;3.142;2024-03-08T07:17:49;4.00;99.90
18229;DHT22;9239;50.932;3.142;2024-03-08T07:20:18;4.00;99.90
18229;DHT22;9239;50.932;3.142;2024-03-08T07:22:45;4.00;99.90
18229;DHT22;9239;50.932;3.142;2024-03-08T07:25:15;4.00;99.90
18229;DHT22;9239;50.932;3.142;2024-03-08T07:27:47;4.00;99.90
18229;DHT22;9239;50.932;3.142;2024-03-08T07:30:16;4.00;99.90
18229;DHT22;9239;50.932;3.142;2024-03-08T07:33:04;4.10;99.90
18229;DHT22;9239;50.932;3.142;2024-03-08T07:35:30;4.10;99.90
18229;DHT22;9239;50.932;3.142;2024-03-08T07:37:57;4.20;99.90
18229;DHT22;9239;50.932;3.142;2024-03-08T07:40:25;4.20;99.90
18229;DHT22;9239;50.932;3.142;2024-03-08T07:42:52;4.20;99.90
18229;DHT22;9239;50.932;3.142;2024-03-08T07:45:21;4.30;99.90
18229;DHT22;9239;50.932;3.142;2024-03-08T07:47:48;4.40;99.90
18229;DHT22;9239;50.932;3.142;2024-03-08T07:50:16;4.50;99.90
18229;DHT22;9239;50.932;3.142;2024-03-08T07:52:45;4.50;99.90
18229;DHT22;9239;50.932;3.142;2024-03-08T07:55:12;4.50;99.90
18229;DHT22;9239;50.932;3.142;2024-03-08T07:57:38;4.60;99.90
18229;DHT22;9239;50.932;3.142;2024-03-08T08:00:06;4.60;99.90
18229;DHT22;9239;50.932;3.142;2024-03-08T08:02:35;4.70;99.90
18229;DHT22;9239;50.932;3.142;2024-03-08T08:05:02;4.80;99.90
18229;DHT22;9239;50.932;3.142;2024-03-08T08:07:29;4.80;99.90
18229;DHT22;9239;50.932;3.142;2024-03-08T08:09:56;4.90;99.90
18229;DHT22;9239;50.932;3.142;2024-03-08T08:12:23;4.90;99.90
18229;DHT22;9239;50.932;3.142;2024-03-08T08:14:50;5.00;99.90
18229;DHT22;9239;50.932;3.142;2024-03-08T08:17:18;5.10;99.90
18229;DHT22;9239;50.932;3.142;2024-03-08T08:19:46;5.10;99.90
18229;DHT22;9239;50.932;3.142;2024-03-08T08:22:14;5.10;99.90
18229;DHT22;9239;50.932;3.142;2024-03-08T08:24:41;5.20;99.90
18229;DHT22;9239;50.932;3.142;2024-03-08T08:27:08;5.20;99.90
18229;DHT22;9239;50.932;3.142;2024-03-08T08:29:35;5.30;99.90
18229;DHT22;9239;50.932;3.142;2024-03-08T08:32:02;5.40;99.90
18229;DHT22;9239;50.932;3.142;2024-03-08T08:34:30;5.40;99.90
18229;DHT22;9239;50.932;3.142;2024-03-08T08:36:59;5.50;99.90
18229;DHT22;9239;50.932;3.142;2024-03-08T08:39:26;5.50;99.90
18229;DHT22;9239;50.932;3.142;2024-03-08T08:41:53;5.50;99.90
18229;DHT22;9239;50.932;3.142;2024-03-08T08:44:20;5.60;99.90
18229;DHT22;9239;50.932;3.142;2024-03-08T08:46:49;5.70;99.90
18229;DHT22;9239;50.932;3.142;2024-03-08T08:49:17;5.80;99.90
18229;DHT22;9239;50.932;3.142;2024-03-08T08:51:49;5.90;99.90
18229;DHT22;9239;50.932;3.142;2024-03-08T08:54:17;6.00;99.90
18229;DHT22;9239;50.932;3.142;2024-03-08T08:56:46;6.10;99.90
18229;DHT22;9239;50.932;3.142;2024-03-08T08:59:13;6.10;99.90
18229;DHT22;9239;50.932;3.142;2024-03-08T09:01:41;6.20;99.90
18229;DHT22;9239;50.932;3.142;2024-03-08T09:04:08;6.10;99.90
18229;DHT22;9239;50.932;3.142;2024-03-08T09:06:37;6.20;99.90
18229;DHT22;9239;50.932;3.142;2024-03-08T09:09:07;6.20;99.90
18229;DHT22;9239;50.932;3.142;2024-03-08T09:11:38;6.30;99.90
18229;DHT22;9239;50.932;3.142;2024-03-08T09:14:07;6.40;99.90
18229;DHT22;9239;50.932;3.142;2024-03-08T09:16:34;6.40;99.90
18229;DHT22;9239;50.932;3.142;2024-03-08T09:19:02;6.50;99.90
18229;DHT22;9239;50.932;3.142;2024-03-08T09:21:31;6.50;99.90
18229;DHT22;9239;50.932;3.142;2024-03-08T09:23:58;6.50;99.90
18229;DHT22;9239;50.932;3.142;2024-03-08T09:26:25;6.70;99.90
18229;DHT22;9239;50.932;3.142;2024-03-08T09:28:53;6.70;99.90
18229;DHT22;9239;50.932;3.142;2024-03-08T09:31:21;6.80;99.90
18229;DHT22;9239;50.932;3.142;2024-03-08T09:33:48;6.90;99.90
18229;DHT22;9239;50.932;3.142;2024-03-08T09:36:16;7.00;99.90
18229;DHT22;9239;50.932;3.142;2024-03-08T09:38:43;7.10;99.90
18229;DHT22;9239;50.932;3.142;2024-03-08T09:41:10;7.20;99.90
18229;DHT22;9239;50.932;3.142;2024-03-08T09:43:38;7.30;99.90
18229;DHT22;9239;50.932;3.142;2024-03-08T09:46:07;7.30;99.90
18229;DHT22;9239;50.932;3.142;2024-03-08T09:48:36;7.40;99.90
18229;DHT22;9239;50.932;3.142;2024-03-08T09:51:05;7.50;99.90
18229;DHT22;9239;50.932;3.142;2024-03-08T09:53:33;7.50;99.90
18229;DHT22;9239;50.932;3.142;2024-03-08T09:56:00;7.60;99.90
18229;DHT22;9239;50.932;3.142;2024-03-08T09:58:29;7.70;99.90
18229;DHT22;9239;50.932;3.142;2024-03-08T10:01:21;7.80;99.90
18229;DHT22;9239;50.932;3.142;2024-03-08T10:03:48;7.90;99.90
18229;DHT22;9239;50.932;3.142;2024-03-08T10:06:16;8.00;99.90
18229;DHT22;9239;50.932;3.142;2024-03-08T10:08:43;8.00;99.90
18229;DHT22;9239;50.932;3.142;2024-03-08T10:11:10;8.10;99.90
18229;DHT22;9239;50.932;3.142;2024-03-08T10:13:38;8.20;99.90
18229;DHT22;9239;50.932;3.142;2024-03-08T10:16:06;8.20;99.90
18229;DHT22;9239;50.932;3.142;2024-03-08T10:18:35;8.10;99.90
18229;DHT22;9239;50.932;3.142;2024-03-08T10:21:04;8.20;99.90
18229;DHT22;9239;50.932;3.142;2024-03-08T10:23:30;8.20;99.90
18229;DHT22;9239;50.932;3.142;2024-03-08T10:25:57;8.20;99.90
18229;DHT22;9239;50.932;3.142;2024-03-08T10:28:24;8.30;99.90
18229;DHT22;9239;50.932;3.142;2024-03-08T10:30:51;8.40;99.90
18229;DHT22;9239;50.932;3.142;2024-03-08T10:33:18;8.50;99.90
18229;DHT22;9239;50.932;3.142;2024-03-08T10:35:46;8.50;99.90
18229;DHT22;9239;50.932;3.142;2024-03-08T10:38:16;8.50;99.90
18229;DHT22;9239;50.932;3.142;2024-03-08T10:40:45;8.60;99.90
18229;DHT22;9239;50.932;3.142;2024-03-08T10:43:22;8.70;99.90
18229;DHT22;9239;50.932;3.142;2024-03-08T10:46:00;8.80;99.90
18229;DHT22;9239;50.932;3.142;2024-03-08T10:48:31;8.90;99.90
18229;DHT22;9239;50.932;3.142;2024-03-08T10:51:02;9.10;99.90
18229;DHT22;9239;50.932;3.142;2024-03-08T10:53:29;9.10;99.90
18229;DHT22;9239;50.932;3.142;2024-03-08T10:55:57;9.00;99.90
18229;DHT22;9239;50.932;3.142;2024-03-08T10:58:26;9.00;99.90
18229;DHT22;9239;50.932;3.142;2024-03-08T11:00:53;9.10;99.90
18229;DHT22;9239;50.932;3.142;2024-03-08T11:03:49;9.20;99.90
18229;DHT22;9239;50.932;3.142;2024-03-08T11:06:23;9.30;99.90
18229;DHT22;9239;50.932;3.142;2024-03-08T11:08:56;9.30;99.90
18229;DHT22;9239;50.932;3.142;2024-03-08T11:11:25;9.40;99.90
18229;DHT22;9239;50.932;3.142;2024-03-08T11:13:57;9.40;99.90
18229;DHT22;9239;50.932;3.142;2024-03-08T11:16:37;9.50;99.90
18229;DHT22;9239;50.932;3.142;2024-03-08T11:19:22;9.60;99.90
18229;DHT22;9239;50.932;3.142;2024-03-08T11:21:59;9.70;99.90
18229;DHT22;9239;50.932;3.142;2024-03-08T11:24:26;9.70;99.90
18229;DHT22;9239;50.932;3.142;2024-03-08T11:26:57;9.80;99.90
18229;DHT22;9239;50.932;3.142;2024-03-08T11:29:37;9.80;99.90
18229;DHT22;9239;50.932;3.142;2024-03-08T11:32:08;9.90;99.90
18229;DHT22;9239;50.932;3.142;2024-03-08T11:34:37;10.00;99.90
18229;DHT22;9239;50.932;3.142;2024-03-08T11:37:08;10.20;99.90
18229;DHT22;9239;50.932;3.142;2024-03-08T11:39:39;10.30;99.90
18229;DHT22;9239;50.932;3.142;2024-03-08T11:42:06;10.30;99.90
18229;DHT22;9239;50.932;3.142;2024-03-08T11:44:37;10.50;99.90
18229;DHT22;9239;50.932;3.142;2024-03-08T11:47:10;10.50;99.90
18229;DHT22;9239;50.932;3.142;2024-03-08T11:49:38;10.50;99.90
18229;DHT22;9239;50.932;3.142;2024-03-08T11:52:13;10.40;99.90
18229;DHT22;9239;50.932;3.142;2024-03-08T11:54:41;10.50;99.90
18229;DHT22;9239;50.932;3.142;2024-03-08T11:57:09;10.60;99.90
18229;DHT22;9239;50.932;3.142;2024-03-08T11:59:39;10.80;99.90
18229;DHT22;9239;50.932;3.142;2024-03-08T12:02:07;10.80;99.90
18229;DHT22;9239;50.932;3.142;2024-03-08T12:04:35;10.80;99.90
18229;DHT22;9239;50.932;3.142;2024-03-08T12:07:04;10.70;99.90
18229;DHT22;9239;50.932;3.142;2024-03-08T12:09:36;10.70;99.90
18229;DHT22;9239;50.932;3.142;2024-03-08T12:12:04;10.70;99.90
18229;DHT22;9239;50.932;3.142;2024-03-08T12:14:33;10.90;99.90
18229;DHT22;9239;50.932;3.142;2024-03-08T12:17:00;10.90;99.90
18229;DHT22;9239;50.932;3.142;2024-03-08T12:19:28;10.90;99.90
18229;DHT22;9239;50.932;3.142;2024-03-08T12:21:55;11.00;99.90
18229;DHT22;9239;50.932;3.142;2024-03-08T12:24:22;11.10;99.90
18229;DHT22;9239;50.932;3.142;2024-03-08T12:26:50;11.00;99.90
18229;DHT22;9239;50.932;3.142;2024-03-08T12:29:19;11.10;99.90
18229;DHT22;9239;50.932;3.142;2024-03-08T12:31:50;11.10;99.90
18229;DHT22;9239;50.932;3.142;2024-03-08T12:34:17;11.30;99.90
18229;DHT22;9239;50.932;3.142;2024-03-08T12:36:47;11.40;99.90
18229;DHT22;9239;50.932;3.142;2024-03-08T12:39:16;11.40;99.90
18229;DHT22;9239;50.932;3.142;2024-03-08T12:41:48;11.30;99.90
18229;DHT22;9239;50.932;3.142;2024-03-08T12:44:16;11.40;99.90
18229;DHT22;9239;50.932;3.142;2024-03-08T12:46:44;11.40;99.90
18229;DHT22;9239;50.932;3.142;2024-03-08T12:49:11;11.40;99.90
18229;DHT22;9239;50.932;3.142;2024-03-08T12:51:40;11.50;99.90
18229;DHT22;9239;50.932;3.142;2024-03-08T12:54:07;11.60;99.90
18229;DHT22;9239;50.932;3.142;2024-03-08T12:56:35;11.50;99.90
18229;DHT22;9239;50.932;3.142;2024-03-08T12:59:04;11.50;99.90
18229;DHT22;9239;50.932;3.142;2024-03-08T13:01:32;11.60;99.90
18229;DHT22;9239;50.932;3.142;2024-03-08T13:03:59;11.70;99.90
18229;DHT22;9239;50.932;3.142;2024-03-08T13:06:27;11.80;99.90
18229;DHT22;9239;50.932;3.142;2024-03-08T13:08:55;11.90;99.90
18229;DHT22;9239;50.932;3.142;2024-03-08T13:11:22;11.90;99.90
18229;DHT22;9239;50.932;3.142;2024-03-08T13:13:50;12.00;99.90
18229;DHT22;9239;50.932;3.142;2024-03-08T13:16:18;11.90;99.90
18229;DHT22;9239;50.932;3.142;2024-03-08T13:18:46;11.90;99.90
18229;DHT22;9239;50.932;3.142;2024-03-08T13:21:15;11.90;99.90
18229;DHT22;9239;50.932;3.142;2024-03-08T13:23:45;12.00;99.90
18229;DHT22;9239;50.932;3.142;2024-03-08T13:26:15;12.10;99.90
18229;DHT22;9239;50.932;3.142;2024-03-08T13:28:43;12.10;99.90
18229;DHT22;9239;50.932;3.142;2024-03-08T13:31:10;12.20;99.90
18229;DHT22;9239;50.932;3.142;2024-03-08T13:33:37;12.20;99.90
18229;DHT22;9239;50.932;3.142;2024-03-08T13:36:07;12.30;99.90
18229;DHT22;9239;50.932;3.142;2024-03-08T13:38:42;12.40;99.90
18229;DHT22;9239;50.932;3.142;2024-03-08T13:41:10;12.40;99.90
18229;DHT22;9239;50.932;3.142;2024-03-08T13:43:40;12.40;99.90
18229;DHT22;9239;50.932;3.142;2024-03-08T13:46:07;12.50;99.90
18229;DHT22;9239;50.932;3.142;2024-03-08T13:48:36;12.50;99.90
18229;DHT22;9239;50.932;3.142;2024-03-08T13:51:05;12.50;99.90
18229;DHT22;9239;50.932;3.142;2024-03-08T13:53:32;12.50;99.90
18229;DHT22;9239;50.932;3.142;2024-03-08T13:56:00;12.60;99.90
18229;DHT22;9239;50.932;3.142;2024-03-08T13:58:28;12.60;99.90
18229;DHT22;9239;50.932;3.142;2024-03-08T14:00:55;12.60;99.90
18229;DHT22;9239;50.932;3.142;2024-03-08T14:03:22;12.70;99.90
18229;DHT22;9239;50.932;3.142;2024-03-08T14:05:49;12.70;99.90
18229;DHT22;9239;50.932;3.142;2024-03-08T14:08:17;12.70;99.90
18229;DHT22;9239;50.932;3.142;2024-03-08T14:10:44;12.80;99.90
18229;DHT22;9239;50.932;3.142;2024-03-08T14:13:12;12.70;99.90
18229;DHT22;9239;50.932;3.142;2024-03-08T14:15:41;12.70;99.90
18229;DHT22;9239;50.932;3.142;2024-03-08T14:18:10;12.70;99.90
18229;DHT22;9239;50.932;3.142;2024-03-08T14:20:38;12.70;99.90
18229;DHT22;9239;50.932;3.142;2024-03-08T14:23:05;12.60;99.90
18229;DHT22;9239;50.932;3.142;2024-03-08T14:25:35;12.60;99.90
18229;DHT22;9239;50.932;3.142;2024-03-08T14:28:01;12.60;99.90
18229;DHT22;9239;50.932;3.142;2024-03-08T14:30:32;12.60;99.90
18229;DHT22;9239;50.932;3.142;2024-03-08T14:33:00;12.70;99.90
18229;DHT22;9239;50.932;3.142;2024-03-08T14:35:27;12.70;99.90
18229;DHT22;9239;50.932;3.142;2024-03-08T14:37:55;12.70;99.90
18229;DHT22;9239;50.932;3.142;2024-03-08T14:40:23;12.60;99.90
18229;DHT22;9239;50.932;3.142;2024-03-08T14:42:51;12.60;99.90
18229;DHT22;9239;50.932;3.142;2024-03-08T14:45:18;12.70;99.90
18229;DHT22;9239;50.932;3.142;2024-03-08T14:47:46;12.70;99.90
18229;DHT22;9239;50.932;3.142;2024-03-08T14:50:16;12.80;99.90
18229;DHT22;9239;50.932;3.142;2024-03-08T14:52:43;12.90;99.90
18229;DHT22;9239;50.932;3.142;2024-03-08T14:55:10;12.90;99.90
18229;DHT22;9239;50.932;3.142;2024-03-08T14:57:40;12.90;99.90
18229;DHT22;9239;50.932;3.142;2024-03-08T15:00:09;12.90;99.90
18229;DHT22;9239;50.932;3.142;2024-03-08T15:02:42;12.90;99.90
18229;DHT22;9239;50.932;3.142;2024-03-08T15:05:09;12.90;99.90
18229;DHT22;9239;50.932;3.142;2024-03-08T15:07:38;12.90;99.90
18229;DHT22;9239;50.932;3.142;2024-03-08T15:10:07;12.90;99.90
18229;DHT22;9239;50.932;3.142;2024-03-08T15:12:37;12.80;99.90
18229;DHT22;9239;50.932;3.142;2024-03-08T15:15:08;12.80;99.90
18229;DHT22;9239;50.932;3.142;2024-03-08T15:17:36;12.80;99.90
18229;DHT22;9239;50.932;3.142;2024-03-08T15:20:06;12.90;99.90
18229;DHT22;9239;50.932;3.142;2024-03-08T15:22:42;12.90;99.90
18229;DHT22;9239;50.932;3.142;2024-03-08T15:25:09;12.90;99.90
18229;DHT22;9239;50.932;3.142;2024-03-08T15:27:42;12.90;99.90
18229;DHT22;9239;50.932;3.142;2024-03-08T15:30:11;12.80;99.90
18229;DHT22;9239;50.932;3.142;2024-03-08T15:32:40;12.90;99.90
18229;DHT22;9239;50.932;3.142;2024-03-08T15:35:10;12.90;99.90
18229;DHT22;9239;50.932;3.142;2024-03-08T15:37:40;12.90;99.90
18229;DHT22;9239;50.932;3.142;2024-03-08T15:40:10;12.90;99.90
18229;DHT22;9239;50.932;3.142;2024-03-08T15:42:47;12.90;99.90
18229;DHT22;9239;50.932;3.142;2024-03-08T15:45:16;12.80;99.90
18229;DHT22;9239;50.932;3.142;2024-03-08T15:47:43;12.70;99.90
18229;DHT22;9239;50.932;3.142;2024-03-08T15:50:11;12.80;99.90
18229;DHT22;9239;50.932;3.142;2024-03-08T15:52:42;12.70;99.90
18229;DHT22;9239;50.932;3.142;2024-03-08T15:55:09;12.80;99.90
18229;DHT22;9239;50.932;3.142;2024-03-08T15:57:41;12.80;99.90
18229;DHT22;9239;50.932;3.142;2024-03-08T16:00:09;12.80;99.90
18229;DHT22;9239;50.932;3.142;2024-03-08T16:02:45;12.80;99.90
18229;DHT22;9239;50.932;3.142;2024-03-08T16:05:16;12.70;99.90